Accueil
METAR-TAF:

METAR-TAF

Aéroports :

Aéroport d'Avignon-Provence

Avignon, France

latitude: 43-54-26N, longitude: 004-54-07E, altitude: 38 m

Observation

Le bulletin a été fait il y a 29 minutes, à 20:30 UTC
Vent 2 kt de direction variable
Température 17°C
Humidité 88%
Pression 1027 hPa
Visibilité 10 km ou plus
pas de nuages en-dessous de 1500 mètres et pas de cumulonimbus.

METAR: LFMV 062030Z AUTO VRB02KT CAVOK 17/15 Q1027

Heure: 22:59 (20:59 UTC)

Prévision

Le bulletin a été fait il y a 6 heures et 59 minutes, à 14:00 UTC
Prévision valable du 06 à 15 UTC au 07 à 15 UTC
Vent 4 kt de nord/nord-ouest
Visibilité 10 km ou plus
pas de nuages en-dessous de 1500 mètres et pas de cumulonimbus.
Probabilité 40% :
Temporairement
du 07 à 00 UTC au 07 à 07 UTC
Visibilité: 3000 m
brume

TAF: LFMV 061400Z 0615/0715 34004KT CAVOK PROB40 TEMPO 0700/0707 3000 BR

Observations et prévisions météorologiques de plus de 4000 aéroports (messages METAR et TAF).

Les stations disponibles sont représentées par des disques jaunes et rouges sur la carte.

Passer la souris dessus pour voir le nom de la station.

Cliquer dessus pour voir les observations et prévisions météorologiques.

Pour changer de carte: cliquez sur les boutons verts avec une croix noire pour zoomer, sur le bouton vert avec un tiret pour effectuer un zoom arrière, ou sur les flèches vertes pour les cartes adjacentes.


METAR-TAF: